sensor_id;sensor_type;location;lat;lon;timestamp;P1;durP1;ratioP1;P2;durP2;ratioP2
59516;SDS011;45342;42.662;27.718;2023-03-16T00:00:14;10.07;;;7.35;;
59516;SDS011;45342;42.662;27.718;2023-03-16T00:02:41;11.43;;;7.88;;
59516;SDS011;45342;42.662;27.718;2023-03-16T00:05:10;11.57;;;7.80;;
59516;SDS011;45342;42.662;27.718;2023-03-16T00:07:37;9.52;;;7.43;;
59516;SDS011;45342;42.662;27.718;2023-03-16T00:10:03;10.85;;;7.35;;
59516;SDS011;45342;42.662;27.718;2023-03-16T00:12:29;10.13;;;7.03;;
59516;SDS011;45342;42.662;27.718;2023-03-16T00:14:58;9.95;;;7.38;;
59516;SDS011;45342;42.662;27.718;2023-03-16T00:19:51;10.68;;;7.32;;
59516;SDS011;45342;42.662;27.718;2023-03-16T00:22:28;10.88;;;7.25;;
59516;SDS011;45342;42.662;27.718;2023-03-16T00:24:55;10.05;;;7.03;;
59516;SDS011;45342;42.662;27.718;2023-03-16T00:29:47;10.95;;;6.75;;
59516;SDS011;45342;42.662;27.718;2023-03-16T00:34:44;11.98;;;7.57;;
59516;SDS011;45342;42.662;27.718;2023-03-16T00:37:10;10.40;;;7.28;;
59516;SDS011;45342;42.662;27.718;2023-03-16T00:39:42;11.00;;;7.30;;
59516;SDS011;45342;42.662;27.718;2023-03-16T00:42:10;10.90;;;7.10;;
59516;SDS011;45342;42.662;27.718;2023-03-16T00:44:36;12.30;;;7.10;;
59516;SDS011;45342;42.662;27.718;2023-03-16T00:47:03;9.70;;;7.30;;
59516;SDS011;45342;42.662;27.718;2023-03-16T00:49:31;11.45;;;7.60;;
59516;SDS011;45342;42.662;27.718;2023-03-16T00:52:04;9.55;;;7.05;;
59516;SDS011;45342;42.662;27.718;2023-03-16T00:54:31;10.25;;;7.20;;
59516;SDS011;45342;42.662;27.718;2023-03-16T00:57:00;12.23;;;7.18;;
59516;SDS011;45342;42.662;27.718;2023-03-16T00:59:26;9.82;;;6.60;;
59516;SDS011;45342;42.662;27.718;2023-03-16T01:01:53;10.05;;;7.22;;
59516;SDS011;45342;42.662;27.718;2023-03-16T01:04:19;9.32;;;7.03;;
59516;SDS011;45342;42.662;27.718;2023-03-16T01:06:46;10.80;;;7.82;;
59516;SDS011;45342;42.662;27.718;2023-03-16T01:09:12;10.27;;;6.88;;
59516;SDS011;45342;42.662;27.718;2023-03-16T01:11:39;8.85;;;6.60;;
59516;SDS011;45342;42.662;27.718;2023-03-16T01:14:07;11.80;;;7.32;;
59516;SDS011;45342;42.662;27.718;2023-03-16T01:16:34;10.65;;;7.25;;
59516;SDS011;45342;42.662;27.718;2023-03-16T01:18:59;10.23;;;7.45;;
59516;SDS011;45342;42.662;27.718;2023-03-16T01:21:25;11.10;;;7.07;;
59516;SDS011;45342;42.662;27.718;2023-03-16T01:23:51;8.02;;;6.35;;
59516;SDS011;45342;42.662;27.718;2023-03-16T01:26:18;8.80;;;6.88;;
59516;SDS011;45342;42.662;27.718;2023-03-16T01:28:45;10.32;;;7.15;;
59516;SDS011;45342;42.662;27.718;2023-03-16T01:31:11;8.30;;;6.55;;
59516;SDS011;45342;42.662;27.718;2023-03-16T01:33:39;9.45;;;6.65;;
59516;SDS011;45342;42.662;27.718;2023-03-16T01:36:10;10.95;;;7.07;;
59516;SDS011;45342;42.662;27.718;2023-03-16T01:38:38;11.40;;;7.10;;
59516;SDS011;45342;42.662;27.718;2023-03-16T01:41:04;9.85;;;7.25;;
59516;SDS011;45342;42.662;27.718;2023-03-16T01:43:30;9.50;;;6.93;;
59516;SDS011;45342;42.662;27.718;2023-03-16T01:48:32;10.45;;;7.28;;
59516;SDS011;45342;42.662;27.718;2023-03-16T01:51:04;10.55;;;7.20;;
59516;SDS011;45342;42.662;27.718;2023-03-16T01:53:32;8.55;;;6.65;;
59516;SDS011;45342;42.662;27.718;2023-03-16T01:55:59;9.57;;;7.03;;
59516;SDS011;45342;42.662;27.718;2023-03-16T01:58:28;9.68;;;6.80;;
59516;SDS011;45342;42.662;27.718;2023-03-16T02:00:54;9.30;;;6.88;;
59516;SDS011;45342;42.662;27.718;2023-03-16T02:03:22;9.95;;;7.20;;
59516;SDS011;45342;42.662;27.718;2023-03-16T02:05:52;10.63;;;7.22;;
59516;SDS011;45342;42.662;27.718;2023-03-16T02:08:20;11.25;;;7.63;;
59516;SDS011;45342;42.662;27.718;2023-03-16T02:10:47;9.60;;;7.22;;
59516;SDS011;45342;42.662;27.718;2023-03-16T02:13:12;10.60;;;7.68;;
59516;SDS011;45342;42.662;27.718;2023-03-16T02:15:38;11.30;;;7.50;;
59516;SDS011;45342;42.662;27.718;2023-03-16T02:18:04;9.88;;;6.93;;
59516;SDS011;45342;42.662;27.718;2023-03-16T02:20:41;10.98;;;7.40;;
59516;SDS011;45342;42.662;27.718;2023-03-16T02:23:15;10.10;;;7.13;;
59516;SDS011;45342;42.662;27.718;2023-03-16T02:28:37;10.60;;;7.57;;
59516;SDS011;45342;42.662;27.718;2023-03-16T02:31:13;9.35;;;7.32;;
59516;SDS011;45342;42.662;27.718;2023-03-16T02:33:40;10.73;;;7.57;;
59516;SDS011;45342;42.662;27.718;2023-03-16T02:36:06;11.18;;;7.22;;
59516;SDS011;45342;42.662;27.718;2023-03-16T02:38:33;10.38;;;7.15;;
59516;SDS011;45342;42.662;27.718;2023-03-16T02:41:20;11.30;;;7.72;;
59516;SDS011;45342;42.662;27.718;2023-03-16T02:43:46;9.70;;;7.30;;
59516;SDS011;45342;42.662;27.718;2023-03-16T02:46:16;11.85;;;7.60;;
59516;SDS011;45342;42.662;27.718;2023-03-16T02:51:13;9.98;;;6.93;;
59516;SDS011;45342;42.662;27.718;2023-03-16T02:53:39;8.75;;;7.28;;
59516;SDS011;45342;42.662;27.718;2023-03-16T02:56:05;9.20;;;6.85;;
59516;SDS011;45342;42.662;27.718;2023-03-16T02:58:31;11.95;;;7.50;;
59516;SDS011;45342;42.662;27.718;2023-03-16T03:00:57;10.30;;;7.50;;
59516;SDS011;45342;42.662;27.718;2023-03-16T03:03:22;10.80;;;7.40;;
59516;SDS011;45342;42.662;27.718;2023-03-16T03:05:48;10.40;;;6.70;;
59516;SDS011;45342;42.662;27.718;2023-03-16T03:08:14;9.40;;;6.75;;
59516;SDS011;45342;42.662;27.718;2023-03-16T03:10:40;11.95;;;7.78;;
59516;SDS011;45342;42.662;27.718;2023-03-16T03:13:06;10.52;;;7.15;;
59516;SDS011;45342;42.662;27.718;2023-03-16T03:15:32;10.55;;;7.25;;
59516;SDS011;45342;42.662;27.718;2023-03-16T03:17:58;10.27;;;7.25;;
59516;SDS011;45342;42.662;27.718;2023-03-16T03:20:24;10.32;;;6.97;;
59516;SDS011;45342;42.662;27.718;2023-03-16T03:22:50;9.52;;;6.90;;
59516;SDS011;45342;42.662;27.718;2023-03-16T03:25:17;11.32;;;7.13;;
59516;SDS011;45342;42.662;27.718;2023-03-16T03:27:43;9.75;;;7.15;;
59516;SDS011;45342;42.662;27.718;2023-03-16T03:30:17;11.10;;;7.47;;
59516;SDS011;45342;42.662;27.718;2023-03-16T03:32:44;10.27;;;6.88;;
59516;SDS011;45342;42.662;27.718;2023-03-16T03:35:10;10.88;;;7.13;;
59516;SDS011;45342;42.662;27.718;2023-03-16T03:37:40;9.55;;;6.80;;
59516;SDS011;45342;42.662;27.718;2023-03-16T03:40:07;11.07;;;7.32;;
59516;SDS011;45342;42.662;27.718;2023-03-16T03:42:37;9.63;;;6.75;;
59516;SDS011;45342;42.662;27.718;2023-03-16T03:45:03;10.50;;;7.53;;
59516;SDS011;45342;42.662;27.718;2023-03-16T03:47:29;10.60;;;7.00;;
59516;SDS011;45342;42.662;27.718;2023-03-16T03:49:54;9.27;;;6.72;;
59516;SDS011;45342;42.662;27.718;2023-03-16T03:52:20;9.73;;;7.28;;
59516;SDS011;45342;42.662;27.718;2023-03-16T03:54:46;9.77;;;6.68;;
59516;SDS011;45342;42.662;27.718;2023-03-16T03:57:11;9.95;;;6.82;;
59516;SDS011;45342;42.662;27.718;2023-03-16T03:59:38;9.60;;;7.07;;
59516;SDS011;45342;42.662;27.718;2023-03-16T04:02:11;9.63;;;7.07;;
59516;SDS011;45342;42.662;27.718;2023-03-16T04:04:37;9.50;;;7.18;;
59516;SDS011;45342;42.662;27.718;2023-03-16T04:07:03;10.27;;;7.13;;
59516;SDS011;45342;42.662;27.718;2023-03-16T04:09:29;10.85;;;7.38;;
59516;SDS011;45342;42.662;27.718;2023-03-16T04:11:58;10.68;;;7.43;;
59516;SDS011;45342;42.662;27.718;2023-03-16T04:14:24;11.43;;;7.80;;
59516;SDS011;45342;42.662;27.718;2023-03-16T04:16:50;10.18;;;7.28;;
59516;SDS011;45342;42.662;27.718;2023-03-16T04:19:16;10.85;;;7.30;;
59516;SDS011;45342;42.662;27.718;2023-03-16T04:21:41;13.20;;;7.82;;
59516;SDS011;45342;42.662;27.718;2023-03-16T04:24:07;11.18;;;7.53;;
59516;SDS011;45342;42.662;27.718;2023-03-16T04:26:32;11.52;;;7.78;;
59516;SDS011;45342;42.662;27.718;2023-03-16T04:28:58;13.38;;;7.88;;
59516;SDS011;45342;42.662;27.718;2023-03-16T04:31:24;9.68;;;7.32;;
59516;SDS011;45342;42.662;27.718;2023-03-16T04:33:50;12.00;;;8.15;;
59516;SDS011;45342;42.662;27.718;2023-03-16T04:36:18;10.35;;;7.70;;
59516;SDS011;45342;42.662;27.718;2023-03-16T04:38:48;10.57;;;7.30;;
59516;SDS011;45342;42.662;27.718;2023-03-16T04:41:14;8.90;;;7.18;;
59516;SDS011;45342;42.662;27.718;2023-03-16T04:43:40;11.63;;;8.20;;
59516;SDS011;45342;42.662;27.718;2023-03-16T04:46:07;13.05;;;8.63;;
59516;SDS011;45342;42.662;27.718;2023-03-16T04:50:59;12.98;;;8.25;;
59516;SDS011;45342;42.662;27.718;2023-03-16T04:53:25;11.32;;;7.38;;
59516;SDS011;45342;42.662;27.718;2023-03-16T04:58:17;13.13;;;8.07;;
59516;SDS011;45342;42.662;27.718;2023-03-16T05:00:43;13.70;;;8.70;;
59516;SDS011;45342;42.662;27.718;2023-03-16T05:03:09;13.45;;;8.27;;
59516;SDS011;45342;42.662;27.718;2023-03-16T05:05:38;11.85;;;8.27;;
59516;SDS011;45342;42.662;27.718;2023-03-16T05:08:04;11.90;;;8.68;;
59516;SDS011;45342;42.662;27.718;2023-03-16T05:10:31;11.65;;;8.48;;
59516;SDS011;45342;42.662;27.718;2023-03-16T05:12:57;12.18;;;8.60;;
59516;SDS011;45342;42.662;27.718;2023-03-16T05:15:23;10.90;;;7.78;;
59516;SDS011;45342;42.662;27.718;2023-03-16T05:17:49;13.77;;;8.48;;
59516;SDS011;45342;42.662;27.718;2023-03-16T05:20:15;11.45;;;7.88;;
59516;SDS011;45342;42.662;27.718;2023-03-16T05:22:41;11.70;;;8.23;;
59516;SDS011;45342;42.662;27.718;2023-03-16T05:25:08;12.38;;;7.90;;
59516;SDS011;45342;42.662;27.718;2023-03-16T05:27:42;15.15;;;8.23;;
59516;SDS011;45342;42.662;27.718;2023-03-16T05:30:09;13.25;;;8.32;;
59516;SDS011;45342;42.662;27.718;2023-03-16T05:32:36;11.88;;;8.50;;
59516;SDS011;45342;42.662;27.718;2023-03-16T05:35:02;11.38;;;8.20;;
59516;SDS011;45342;42.662;27.718;2023-03-16T05:37:29;12.43;;;8.50;;
59516;SDS011;45342;42.662;27.718;2023-03-16T05:42:21;10.93;;;8.13;;
59516;SDS011;45342;42.662;27.718;2023-03-16T05:44:47;13.73;;;8.13;;
59516;SDS011;45342;42.662;27.718;2023-03-16T05:47:13;12.10;;;8.10;;
59516;SDS011;45342;42.662;27.718;2023-03-16T05:49:39;12.10;;;8.40;;
59516;SDS011;45342;42.662;27.718;2023-03-16T05:52:04;12.93;;;8.32;;
59516;SDS011;45342;42.662;27.718;2023-03-16T05:54:30;13.82;;;8.88;;
59516;SDS011;45342;42.662;27.718;2023-03-16T05:56:55;12.88;;;8.45;;
59516;SDS011;45342;42.662;27.718;2023-03-16T05:59:21;12.43;;;7.80;;
59516;SDS011;45342;42.662;27.718;2023-03-16T06:01:46;12.63;;;8.55;;
59516;SDS011;45342;42.662;27.718;2023-03-16T06:04:14;10.65;;;7.47;;
59516;SDS011;45342;42.662;27.718;2023-03-16T06:06:40;11.48;;;8.32;;
59516;SDS011;45342;42.662;27.718;2023-03-16T06:09:06;12.30;;;8.05;;
59516;SDS011;45342;42.662;27.718;2023-03-16T06:11:32;11.50;;;8.13;;
59516;SDS011;45342;42.662;27.718;2023-03-16T06:13:58;12.57;;;8.32;;
59516;SDS011;45342;42.662;27.718;2023-03-16T06:16:24;13.55;;;9.00;;
59516;SDS011;45342;42.662;27.718;2023-03-16T06:18:50;10.98;;;8.32;;
59516;SDS011;45342;42.662;27.718;2023-03-16T06:21:15;11.75;;;8.70;;
59516;SDS011;45342;42.662;27.718;2023-03-16T06:23:41;13.25;;;8.10;;
59516;SDS011;45342;42.662;27.718;2023-03-16T06:26:07;12.50;;;8.77;;
59516;SDS011;45342;42.662;27.718;2023-03-16T06:28:32;12.15;;;8.25;;
59516;SDS011;45342;42.662;27.718;2023-03-16T06:30:58;13.57;;;8.98;;
59516;SDS011;45342;42.662;27.718;2023-03-16T06:33:24;13.88;;;8.52;;
59516;SDS011;45342;42.662;27.718;2023-03-16T06:35:49;18.83;;;9.52;;
59516;SDS011;45342;42.662;27.718;2023-03-16T06:38:18;15.57;;;9.45;;
59516;SDS011;45342;42.662;27.718;2023-03-16T06:40:44;17.40;;;9.80;;
59516;SDS011;45342;42.662;27.718;2023-03-16T06:43:09;14.75;;;9.45;;
59516;SDS011;45342;42.662;27.718;2023-03-16T06:45:36;17.20;;;10.43;;
59516;SDS011;45342;42.662;27.718;2023-03-16T06:48:01;18.50;;;9.50;;
59516;SDS011;45342;42.662;27.718;2023-03-16T06:50:27;14.18;;;9.35;;
59516;SDS011;45342;42.662;27.718;2023-03-16T06:52:53;17.08;;;9.98;;
59516;SDS011;45342;42.662;27.718;2023-03-16T06:55:18;17.75;;;9.85;;
59516;SDS011;45342;42.662;27.718;2023-03-16T06:57:45;14.90;;;9.80;;
59516;SDS011;45342;42.662;27.718;2023-03-16T07:00:12;15.45;;;9.23;;
59516;SDS011;45342;42.662;27.718;2023-03-16T07:02:48;15.77;;;10.38;;
59516;SDS011;45342;42.662;27.718;2023-03-16T07:05:14;17.95;;;10.60;;
59516;SDS011;45342;42.662;27.718;2023-03-16T07:07:41;16.38;;;10.27;;
59516;SDS011;45342;42.662;27.718;2023-03-16T07:10:11;13.98;;;9.68;;
59516;SDS011;45342;42.662;27.718;2023-03-16T07:15:28;16.02;;;10.63;;
59516;SDS011;45342;42.662;27.718;2023-03-16T07:17:53;15.43;;;9.82;;
59516;SDS011;45342;42.662;27.718;2023-03-16T07:20:20;15.23;;;10.13;;
59516;SDS011;45342;42.662;27.718;2023-03-16T07:22:55;16.88;;;10.35;;
59516;SDS011;45342;42.662;27.718;2023-03-16T07:25:21;14.85;;;10.45;;
59516;SDS011;45342;42.662;27.718;2023-03-16T07:27:48;14.38;;;10.10;;
59516;SDS011;45342;42.662;27.718;2023-03-16T07:43:42;19.35;;;11.57;;
59516;SDS011;45342;42.662;27.718;2023-03-16T07:46:10;17.00;;;10.95;;
59516;SDS011;45342;42.662;27.718;2023-03-16T07:48:38;16.98;;;10.85;;
59516;SDS011;45342;42.662;27.718;2023-03-16T07:51:04;16.33;;;10.77;;
59516;SDS011;45342;42.662;27.718;2023-03-16T07:53:30;16.85;;;11.05;;
59516;SDS011;45342;42.662;27.718;2023-03-16T07:55:59;14.68;;;10.48;;
59516;SDS011;45342;42.662;27.718;2023-03-16T07:58:26;16.73;;;11.07;;
59516;SDS011;45342;42.662;27.718;2023-03-16T08:00:56;17.67;;;11.63;;
59516;SDS011;45342;42.662;27.718;2023-03-16T08:03:23;16.58;;;10.85;;
59516;SDS011;45342;42.662;27.718;2023-03-16T08:05:54;15.98;;;10.80;;
59516;SDS011;45342;42.662;27.718;2023-03-16T08:08:20;16.80;;;10.88;;
59516;SDS011;45342;42.662;27.718;2023-03-16T08:13:18;17.45;;;11.00;;
59516;SDS011;45342;42.662;27.718;2023-03-16T08:15:45;16.50;;;11.02;;
59516;SDS011;45342;42.662;27.718;2023-03-16T08:18:11;16.38;;;11.10;;
59516;SDS011;45342;42.662;27.718;2023-03-16T08:20:37;19.40;;;12.00;;
59516;SDS011;45342;42.662;27.718;2023-03-16T08:23:06;17.85;;;11.20;;
59516;SDS011;45342;42.662;27.718;2023-03-16T08:25:32;16.73;;;11.27;;
59516;SDS011;45342;42.662;27.718;2023-03-16T08:27:58;18.52;;;11.85;;
59516;SDS011;45342;42.662;27.718;2023-03-16T08:30:23;16.75;;;11.18;;
59516;SDS011;45342;42.662;27.718;2023-03-16T08:32:50;18.10;;;11.38;;
59516;SDS011;45342;42.662;27.718;2023-03-16T08:35:16;19.35;;;11.63;;
59516;SDS011;45342;42.662;27.718;2023-03-16T08:37:43;18.38;;;11.98;;
59516;SDS011;45342;42.662;27.718;2023-03-16T08:40:10;19.38;;;11.68;;
59516;SDS011;45342;42.662;27.718;2023-03-16T08:42:39;18.88;;;12.60;;
59516;SDS011;45342;42.662;27.718;2023-03-16T08:45:06;18.58;;;11.50;;
59516;SDS011;45342;42.662;27.718;2023-03-16T08:47:35;22.65;;;12.43;;
59516;SDS011;45342;42.662;27.718;2023-03-16T08:50:02;19.35;;;12.27;;
59516;SDS011;45342;42.662;27.718;2023-03-16T08:52:30;22.77;;;13.15;;
59516;SDS011;45342;42.662;27.718;2023-03-16T08:54:57;18.33;;;11.85;;
59516;SDS011;45342;42.662;27.718;2023-03-16T08:57:23;18.08;;;11.10;;
59516;SDS011;45342;42.662;27.718;2023-03-16T08:59:49;19.48;;;12.32;;
59516;SDS011;45342;42.662;27.718;2023-03-16T09:02:15;19.13;;;12.02;;
59516;SDS011;45342;42.662;27.718;2023-03-16T09:04:41;16.98;;;11.15;;
59516;SDS011;45342;42.662;27.718;2023-03-16T09:07:06;19.30;;;12.32;;
59516;SDS011;45342;42.662;27.718;2023-03-16T09:09:32;20.85;;;11.60;;
59516;SDS011;45342;42.662;27.718;2023-03-16T09:11:59;19.40;;;11.63;;
59516;SDS011;45342;42.662;27.718;2023-03-16T09:16:51;19.88;;;11.20;;
59516;SDS011;45342;42.662;27.718;2023-03-16T09:19:17;21.52;;;12.55;;
59516;SDS011;45342;42.662;27.718;2023-03-16T09:21:43;21.02;;;11.27;;
59516;SDS011;45342;42.662;27.718;2023-03-16T09:24:09;21.48;;;12.20;;
59516;SDS011;45342;42.662;27.718;2023-03-16T09:26:35;15.43;;;10.43;;
59516;SDS011;45342;42.662;27.718;2023-03-16T09:29:02;17.33;;;10.27;;
59516;SDS011;45342;42.662;27.718;2023-03-16T09:31:31;18.50;;;11.35;;
59516;SDS011;45342;42.662;27.718;2023-03-16T09:33:57;15.93;;;10.20;;
59516;SDS011;45342;42.662;27.718;2023-03-16T09:36:23;17.63;;;11.20;;
59516;SDS011;45342;42.662;27.718;2023-03-16T09:38:49;16.13;;;10.25;;
59516;SDS011;45342;42.662;27.718;2023-03-16T09:46:56;16.00;;;9.85;;
59516;SDS011;45342;42.662;27.718;2023-03-16T09:49:26;17.65;;;10.25;;
59516;SDS011;45342;42.662;27.718;2023-03-16T09:54:52;15.93;;;10.23;;
59516;SDS011;45342;42.662;27.718;2023-03-16T09:59:57;15.48;;;9.40;;
59516;SDS011;45342;42.662;27.718;2023-03-16T10:05:24;13.68;;;9.27;;
59516;SDS011;45342;42.662;27.718;2023-03-16T10:18:50;16.23;;;9.82;;
59516;SDS011;45342;42.662;27.718;2023-03-16T10:21:23;17.70;;;9.50;;
59516;SDS011;45342;42.662;27.718;2023-03-16T10:23:49;16.20;;;10.45;;
59516;SDS011;45342;42.662;27.718;2023-03-16T10:26:24;15.38;;;9.20;;
59516;SDS011;45342;42.662;27.718;2023-03-16T10:28:55;14.43;;;9.23;;
59516;SDS011;45342;42.662;27.718;2023-03-16T10:31:21;14.32;;;8.90;;
59516;SDS011;45342;42.662;27.718;2023-03-16T10:39:00;16.88;;;8.32;;
59516;SDS011;45342;42.662;27.718;2023-03-16T10:41:30;15.23;;;9.23;;
59516;SDS011;45342;42.662;27.718;2023-03-16T10:43:58;13.85;;;8.90;;
59516;SDS011;45342;42.662;27.718;2023-03-16T10:46:36;14.02;;;8.60;;
59516;SDS011;45342;42.662;27.718;2023-03-16T10:49:03;13.98;;;8.20;;
59516;SDS011;45342;42.662;27.718;2023-03-16T10:51:30;11.65;;;8.05;;
59516;SDS011;45342;42.662;27.718;2023-03-16T10:56:36;13.23;;;8.10;;
59516;SDS011;45342;42.662;27.718;2023-03-16T10:59:11;13.00;;;8.57;;
59516;SDS011;45342;42.662;27.718;2023-03-16T11:02:02;12.35;;;8.18;;
59516;SDS011;45342;42.662;27.718;2023-03-16T11:04:36;12.38;;;8.20;;
59516;SDS011;45342;42.662;27.718;2023-03-16T11:07:02;13.55;;;8.40;;
59516;SDS011;45342;42.662;27.718;2023-03-16T11:09:31;13.23;;;8.60;;
59516;SDS011;45342;42.662;27.718;2023-03-16T11:11:58;11.18;;;7.05;;
59516;SDS011;45342;42.662;27.718;2023-03-16T11:14:26;11.48;;;7.85;;
59516;SDS011;45342;42.662;27.718;2023-03-16T11:20:04;13.25;;;7.60;;
59516;SDS011;45342;42.662;27.718;2023-03-16T11:22:45;13.23;;;8.23;;
59516;SDS011;45342;42.662;27.718;2023-03-16T11:25:32;13.55;;;8.02;;
59516;SDS011;45342;42.662;27.718;2023-03-16T11:30:59;12.18;;;7.22;;
59516;SDS011;45342;42.662;27.718;2023-03-16T11:33:30;11.30;;;7.68;;
59516;SDS011;45342;42.662;27.718;2023-03-16T11:36:14;11.00;;;7.68;;
59516;SDS011;45342;42.662;27.718;2023-03-16T11:38:55;13.82;;;7.57;;
59516;SDS011;45342;42.662;27.718;2023-03-16T11:41:35;10.50;;;6.72;;
59516;SDS011;45342;42.662;27.718;2023-03-16T11:47:05;11.40;;;7.50;;
59516;SDS011;45342;42.662;27.718;2023-03-16T12:00:24;11.90;;;6.65;;
59516;SDS011;45342;42.662;27.718;2023-03-16T12:06:04;11.70;;;7.00;;
59516;SDS011;45342;42.662;27.718;2023-03-16T12:11:09;12.68;;;7.03;;
59516;SDS011;45342;42.662;27.718;2023-03-16T12:16:30;9.52;;;6.32;;
59516;SDS011;45342;42.662;27.718;2023-03-16T12:19:21;13.25;;;6.80;;
59516;SDS011;45342;42.662;27.718;2023-03-16T12:21:50;16.13;;;7.07;;
59516;SDS011;45342;42.662;27.718;2023-03-16T12:24:26;13.85;;;6.88;;
59516;SDS011;45342;42.662;27.718;2023-03-16T12:26:53;15.50;;;7.50;;
59516;SDS011;45342;42.662;27.718;2023-03-16T12:32:11;13.98;;;7.50;;
59516;SDS011;45342;42.662;27.718;2023-03-16T12:34:51;13.27;;;7.32;;
59516;SDS011;45342;42.662;27.718;2023-03-16T12:37:40;13.63;;;7.18;;
59516;SDS011;45342;42.662;27.718;2023-03-16T12:45:50;15.40;;;7.55;;
59516;SDS011;45342;42.662;27.718;2023-03-16T12:50:57;14.45;;;7.40;;
59516;SDS011;45342;42.662;27.718;2023-03-16T12:54:07;12.93;;;7.07;;
59516;SDS011;45342;42.662;27.718;2023-03-16T12:56:18;14.77;;;7.60;;
59516;SDS011;45342;42.662;27.718;2023-03-16T12:58:47;10.77;;;6.45;;
59516;SDS011;45342;42.662;27.718;2023-03-16T13:01:16;13.10;;;6.78;;
59516;SDS011;45342;42.662;27.718;2023-03-16T13:03:45;12.18;;;6.88;;
59516;SDS011;45342;42.662;27.718;2023-03-16T13:06:20;12.93;;;7.35;;
59516;SDS011;45342;42.662;27.718;2023-03-16T13:08:52;12.98;;;6.80;;
59516;SDS011;45342;42.662;27.718;2023-03-16T13:16:30;11.63;;;6.85;;
59516;SDS011;45342;42.662;27.718;2023-03-16T13:18:58;11.23;;;6.88;;
59516;SDS011;45342;42.662;27.718;2023-03-16T13:26:53;11.98;;;6.25;;
59516;SDS011;45342;42.662;27.718;2023-03-16T13:29:24;10.23;;;6.45;;
59516;SDS011;45342;42.662;27.718;2023-03-16T13:31:52;10.18;;;6.43;;
59516;SDS011;45342;42.662;27.718;2023-03-16T13:34:31;8.82;;;5.82;;
59516;SDS011;45342;42.662;27.718;2023-03-16T13:37:01;10.13;;;6.65;;
59516;SDS011;45342;42.662;27.718;2023-03-16T13:39:29;9.57;;;5.78;;
59516;SDS011;45342;42.662;27.718;2023-03-16T13:44:23;10.52;;;6.20;;
59516;SDS011;45342;42.662;27.718;2023-03-16T13:46:50;8.32;;;5.97;;
59516;SDS011;45342;42.662;27.718;2023-03-16T13:49:16;11.23;;;5.85;;
59516;SDS011;45342;42.662;27.718;2023-03-16T13:51:44;9.50;;;6.22;;
59516;SDS011;45342;42.662;27.718;2023-03-16T13:54:27;8.93;;;5.80;;
59516;SDS011;45342;42.662;27.718;2023-03-16T13:56:57;7.40;;;5.70;;
59516;SDS011;45342;42.662;27.718;2023-03-16T13:59:24;10.07;;;6.20;;
59516;SDS011;45342;42.662;27.718;2023-03-16T14:01:59;9.90;;;5.47;;
59516;SDS011;45342;42.662;27.718;2023-03-16T14:04:31;8.73;;;5.68;;
59516;SDS011;45342;42.662;27.718;2023-03-16T14:07:00;9.00;;;5.72;;
59516;SDS011;45342;42.662;27.718;2023-03-16T14:09:30;7.78;;;5.22;;
59516;SDS011;45342;42.662;27.718;2023-03-16T14:11:58;9.27;;;5.80;;
59516;SDS011;45342;42.662;27.718;2023-03-16T14:16:58;8.60;;;5.60;;
59516;SDS011;45342;42.662;27.718;2023-03-16T14:19:27;7.50;;;5.55;;
59516;SDS011;45342;42.662;27.718;2023-03-16T14:22:03;9.80;;;5.55;;
59516;SDS011;45342;42.662;27.718;2023-03-16T14:24:33;8.98;;;5.28;;
59516;SDS011;45342;42.662;27.718;2023-03-16T14:30:31;8.77;;;5.50;;
59516;SDS011;45342;42.662;27.718;2023-03-16T14:33:05;7.10;;;4.63;;
59516;SDS011;45342;42.662;27.718;2023-03-16T14:35:44;7.65;;;5.03;;
59516;SDS011;45342;42.662;27.718;2023-03-16T14:38:30;7.63;;;4.90;;
59516;SDS011;45342;42.662;27.718;2023-03-16T14:41:41;7.60;;;4.85;;
59516;SDS011;45342;42.662;27.718;2023-03-16T14:43:54;9.43;;;5.13;;
59516;SDS011;45342;42.662;27.718;2023-03-16T14:46:25;7.88;;;4.47;;
59516;SDS011;45342;42.662;27.718;2023-03-16T14:49:15;7.72;;;5.03;;
59516;SDS011;45342;42.662;27.718;2023-03-16T14:51:43;7.68;;;4.78;;
59516;SDS011;45342;42.662;27.718;2023-03-16T14:54:11;9.70;;;4.47;;
59516;SDS011;45342;42.662;27.718;2023-03-16T14:56:38;7.32;;;4.47;;
59516;SDS011;45342;42.662;27.718;2023-03-16T14:59:03;8.43;;;5.03;;
59516;SDS011;45342;42.662;27.718;2023-03-16T15:01:30;7.03;;;4.50;;
59516;SDS011;45342;42.662;27.718;2023-03-16T15:03:56;7.97;;;4.82;;
59516;SDS011;45342;42.662;27.718;2023-03-16T15:06:22;8.65;;;4.68;;
59516;SDS011;45342;42.662;27.718;2023-03-16T15:08:48;12.00;;;4.93;;
59516;SDS011;45342;42.662;27.718;2023-03-16T15:11:16;11.23;;;4.75;;
59516;SDS011;45342;42.662;27.718;2023-03-16T15:13:48;6.13;;;4.40;;
59516;SDS011;45342;42.662;27.718;2023-03-16T15:16:14;7.82;;;4.50;;
59516;SDS011;45342;42.662;27.718;2023-03-16T15:18:41;9.80;;;4.82;;
59516;SDS011;45342;42.662;27.718;2023-03-16T15:21:08;8.90;;;4.72;;
59516;SDS011;45342;42.662;27.718;2023-03-16T15:26:11;9.82;;;4.38;;
59516;SDS011;45342;42.662;27.718;2023-03-16T15:28:39;10.40;;;4.32;;
59516;SDS011;45342;42.662;27.718;2023-03-16T15:31:11;11.95;;;4.65;;
59516;SDS011;45342;42.662;27.718;2023-03-16T15:33:38;6.68;;;4.38;;
59516;SDS011;45342;42.662;27.718;2023-03-16T15:36:09;10.20;;;4.80;;
59516;SDS011;45342;42.662;27.718;2023-03-16T15:38:42;7.72;;;4.32;;
59516;SDS011;45342;42.662;27.718;2023-03-16T15:41:10;8.18;;;4.25;;
59516;SDS011;45342;42.662;27.718;2023-03-16T15:43:39;7.28;;;4.07;;
59516;SDS011;45342;42.662;27.718;2023-03-16T15:46:08;9.82;;;4.40;;
59516;SDS011;45342;42.662;27.718;2023-03-16T15:48:34;7.50;;;4.30;;
59516;SDS011;45342;42.662;27.718;2023-03-16T15:51:01;7.78;;;4.18;;
59516;SDS011;45342;42.662;27.718;2023-03-16T15:53:50;7.90;;;4.20;;
59516;SDS011;45342;42.662;27.718;2023-03-16T15:56:23;6.53;;;3.85;;
59516;SDS011;45342;42.662;27.718;2023-03-16T15:58:54;7.35;;;3.88;;
59516;SDS011;45342;42.662;27.718;2023-03-16T16:01:25;7.07;;;4.43;;
59516;SDS011;45342;42.662;27.718;2023-03-16T16:03:55;8.00;;;4.35;;
59516;SDS011;45342;42.662;27.718;2023-03-16T16:06:21;8.75;;;4.07;;
59516;SDS011;45342;42.662;27.718;2023-03-16T16:08:47;8.85;;;4.28;;
59516;SDS011;45342;42.662;27.718;2023-03-16T16:11:16;6.43;;;4.00;;
59516;SDS011;45342;42.662;27.718;2023-03-16T16:13:46;6.82;;;4.00;;
59516;SDS011;45342;42.662;27.718;2023-03-16T16:16:13;5.75;;;4.00;;
59516;SDS011;45342;42.662;27.718;2023-03-16T16:18:40;8.23;;;4.03;;
59516;SDS011;45342;42.662;27.718;2023-03-16T16:21:12;6.93;;;4.38;;
59516;SDS011;45342;42.662;27.718;2023-03-16T16:23:44;8.30;;;4.32;;
59516;SDS011;45342;42.662;27.718;2023-03-16T16:26:33;6.53;;;4.00;;
59516;SDS011;45342;42.662;27.718;2023-03-16T16:28:59;5.82;;;4.05;;
59516;SDS011;45342;42.662;27.718;2023-03-16T16:31:27;9.88;;;4.60;;
59516;SDS011;45342;42.662;27.718;2023-03-16T16:33:54;8.20;;;5.13;;
59516;SDS011;45342;42.662;27.718;2023-03-16T16:38:46;11.52;;;4.70;;
59516;SDS011;45342;42.662;27.718;2023-03-16T16:41:24;7.18;;;4.53;;
59516;SDS011;45342;42.662;27.718;2023-03-16T16:43:52;7.28;;;4.40;;
59516;SDS011;45342;42.662;27.718;2023-03-16T16:46:21;7.28;;;4.28;;
59516;SDS011;45342;42.662;27.718;2023-03-16T16:48:57;7.85;;;4.45;;
59516;SDS011;45342;42.662;27.718;2023-03-16T16:51:51;5.83;;;4.10;;